Terminal Aerodrome Forecast
Issued by NWS Wilmington, OH

Current Version | Previous Version | Text Only | Print | Product List | Glossary Off
Versions: 1 2 3 4 5 6 7 8 9 10 11 12 13 14 15 16 17 18 19

846
FTUS41 KILN 192116 AAB
TAFCMH
TAF AMD
KCMH 192116Z 1921/2018 26014G24KT P6SM VCTS SCT045CB
      TEMPO 1921/1922 4SM -TSRA BR BKN035CB
     FM200000 30006KT P6SM SCT150
     FM200900 VRB02KT 5SM BR FEW250
     FM201200 VRB02KT 2SM BR FEW130
     FM201400 VRB03KT P6SM FEW050=

USA.gov is the U.S. government's official web portal to all federal, state and local government web resources and services.